Kemerovo, Russia
Current Conditions -  °F | °C
As of 9:30 PM on Thursday 18 Dec 2014 (Local Time) from UNEE Reporting Station
Clear Clear  
Wind Chill: -5°   Ceiling: Unl
Heat Index:   Visibility: 4mi
Dew Point:   Wind: 7mph
Humidity: 100%   Direction: 200°SSW
Pressure: 30.56"   Gusts: NA
Location:  55.33°N, 86.08°E
Report Text: UNEE 181430Z 20003MPS 7000 SKC M14/M14 Q1035 NOSIG RMK QFE75323451035
Loading
Personal Weather Stations






























Interactive Weather Map New forecast layout! Learn more

10-Day Weather Forecast

Advertisements
Track Severe Weather on mobile